createdAt,value
2022-12-01T00:02:00.714Z,32.38
2022-12-01T00:04:27.627Z,32.35
2022-12-01T00:06:54.384Z,32.35
2022-12-01T00:09:39.830Z,32.36
2022-12-01T00:12:07.098Z,32.57
2022-12-01T00:14:33.875Z,32.24
2022-12-01T00:17:02.081Z,32.41
2022-12-01T00:19:28.932Z,32.33
2022-12-01T00:21:55.748Z,32.43
2022-12-01T00:24:23.594Z,32.43
2022-12-01T00:26:50.392Z,32.47
2022-12-01T00:29:17.179Z,32.37
2022-12-01T00:31:44.040Z,32.39
2022-12-01T00:34:22.689Z,32.31
2022-12-01T00:36:49.803Z,32.47
2022-12-01T00:39:16.755Z,32.26
2022-12-01T00:41:43.557Z,32.54
2022-12-01T00:44:10.951Z,32.61
2022-12-01T00:46:37.739Z,32.55
2022-12-01T00:49:04.568Z,32.51
2022-12-01T00:51:32.909Z,32.44
2022-12-01T00:53:59.939Z,32.51
2022-12-01T00:56:26.839Z,32.47
2022-12-01T00:58:53.621Z,32.49
2022-12-01T01:01:20.733Z,32.53
2022-12-01T01:03:47.937Z,32.62
2022-12-01T01:06:14.753Z,32.53
2022-12-01T01:08:42.892Z,32.51
2022-12-01T01:11:09.929Z,32.36
2022-12-01T01:13:37.408Z,32.33
2022-12-01T01:16:07.123Z,32.44
2022-12-01T01:18:34.507Z,32.40
2022-12-01T01:21:04.467Z,32.55
2022-12-01T01:23:31.333Z,32.42
2022-12-01T01:26:04.052Z,32.55
2022-12-01T01:28:31.383Z,32.60
2022-12-01T01:30:58.389Z,32.36
2022-12-01T01:33:25.359Z,32.54
2022-12-01T01:35:52.147Z,32.55
2022-12-01T01:38:18.968Z,32.55
2022-12-01T01:40:46.506Z,32.46
2022-12-01T01:43:17.639Z,32.52
2022-12-01T01:45:44.722Z,32.55
2022-12-01T01:48:13.688Z,32.38
2022-12-01T01:50:41.033Z,32.27
2022-12-01T01:53:12.835Z,32.53
2022-12-01T01:55:39.763Z,32.43
2022-12-01T01:58:09.331Z,32.64
2022-12-01T02:00:39.334Z,32.56
2022-12-01T02:03:08.042Z,32.46
2022-12-01T02:05:37.101Z,32.48
2022-12-01T02:08:04.817Z,32.55
2022-12-01T02:10:46.191Z,32.30
2022-12-01T02:13:25.455Z,32.49
2022-12-01T02:16:04.153Z,32.41
2022-12-01T02:18:38.990Z,32.54
2022-12-01T02:21:31.548Z,32.34
2022-12-01T02:24:25.398Z,32.51
2022-12-01T02:26:59.781Z,32.48
2022-12-01T02:30:06.585Z,32.50
2022-12-01T02:32:57.403Z,32.50
2022-12-01T02:35:27.663Z,32.53
2022-12-01T02:38:04.764Z,32.59
2022-12-01T02:40:37.839Z,32.61
2022-12-01T02:43:12.496Z,32.56
2022-12-01T02:45:45.353Z,32.53
2022-12-01T02:48:19.226Z,32.36
2022-12-01T02:50:46.718Z,32.63
2022-12-01T02:53:17.303Z,32.52
2022-12-01T02:55:48.916Z,32.38
2022-12-01T02:58:16.016Z,32.45
2022-12-01T03:00:56.596Z,32.37
2022-12-01T03:03:36.188Z,32.45
2022-12-01T03:06:08.526Z,32.40
2022-12-01T03:08:47.991Z,32.51
2022-12-01T03:11:27.255Z,32.28
2022-12-01T03:14:08.693Z,32.33
2022-12-01T03:16:46.603Z,32.15
2022-12-01T03:19:20.096Z,32.35
2022-12-01T03:21:55.492Z,32.32
2022-12-01T03:24:26.378Z,32.11
2022-12-01T03:26:57.125Z,32.09
2022-12-01T03:29:28.017Z,32.17
2022-12-01T03:32:00.641Z,32.16
2022-12-01T03:34:35.717Z,32.16
2022-12-01T03:37:07.042Z,32.24
2022-12-01T03:39:38.532Z,32.07
2022-12-01T03:42:08.851Z,32.32
2022-12-01T03:44:42.073Z,32.24
2022-12-01T03:47:13.000Z,32.18
2022-12-01T03:49:42.875Z,32.09
2022-12-01T03:52:19.388Z,32.30
2022-12-01T03:54:54.012Z,32.18
2022-12-01T03:57:27.006Z,32.08
2022-12-01T03:59:54.559Z,31.98
2022-12-01T04:02:21.595Z,32.13
2022-12-01T04:04:49.856Z,32.10
2022-12-01T04:07:16.667Z,32.00
2022-12-01T04:09:43.493Z,31.97
2022-12-01T04:12:32.852Z,32.00
2022-12-01T04:15:01.123Z,32.04
2022-12-01T04:17:28.556Z,32.09
2022-12-01T04:19:57.165Z,32.05
2022-12-01T04:22:24.508Z,31.92
2022-12-01T04:24:52.317Z,31.91
2022-12-01T04:27:19.848Z,31.91
2022-12-01T04:29:47.157Z,31.93
2022-12-01T04:32:14.879Z,31.82
2022-12-01T04:34:41.923Z,31.50
2022-12-01T04:37:10.348Z,31.91
2022-12-01T04:39:37.223Z,31.77
2022-12-01T04:42:04.852Z,31.77
2022-12-01T04:44:34.933Z,31.72
2022-12-01T04:47:02.470Z,31.72
2022-12-01T04:49:29.621Z,31.75
2022-12-01T04:51:56.466Z,31.85
2022-12-01T04:54:25.057Z,31.86
2022-12-01T04:56:51.861Z,31.79
2022-12-01T04:59:18.709Z,31.67
2022-12-01T05:01:48.042Z,31.79
2022-12-01T05:04:15.471Z,31.69
2022-12-01T05:06:43.028Z,31.72
2022-12-01T05:09:17.554Z,31.37
2022-12-01T05:11:46.148Z,31.66
2022-12-01T05:14:12.949Z,31.69
2022-12-01T05:16:39.986Z,31.62
2022-12-01T05:19:25.619Z,31.68
2022-12-01T05:21:52.600Z,31.75
2022-12-01T05:24:20.513Z,31.67
2022-12-01T05:26:48.744Z,31.54
2022-12-01T05:29:15.673Z,31.67
2022-12-01T05:31:42.655Z,31.54
2022-12-01T05:34:09.790Z,31.54
2022-12-01T05:36:37.043Z,31.35
2022-12-01T05:39:03.941Z,31.49
2022-12-01T05:41:30.805Z,31.29
2022-12-01T05:43:58.945Z,31.46
2022-12-01T05:46:25.867Z,31.40
2022-12-01T05:48:52.762Z,31.64
2022-12-01T05:51:19.618Z,31.76
2022-12-01T05:53:46.783Z,31.48
2022-12-01T05:56:13.622Z,31.48
2022-12-01T05:58:40.670Z,31.45
2022-12-01T06:01:08.883Z,31.38
2022-12-01T06:03:35.748Z,31.23
2022-12-01T06:06:02.748Z,31.22
2022-12-01T06:08:29.550Z,31.32
2022-12-01T06:10:56.308Z,31.31
2022-12-01T06:13:23.191Z,31.33
2022-12-01T06:15:57.529Z,31.10
2022-12-01T06:18:26.815Z,31.04
2022-12-01T06:20:53.634Z,31.19
2022-12-01T06:23:20.513Z,31.09
2022-12-01T06:25:47.333Z,31.04
2022-12-01T06:28:14.264Z,31.10
2022-12-01T06:30:41.223Z,31.01
2022-12-01T06:33:08.175Z,30.90
2022-12-01T06:35:36.774Z,30.84
2022-12-01T06:38:04.431Z,30.90
2022-12-01T06:40:31.518Z,30.74
2022-12-01T06:43:01.249Z,30.45
2022-12-01T06:45:28.458Z,30.18
2022-12-01T06:47:55.500Z,30.49
2022-12-01T06:50:22.631Z,30.27
2022-12-01T06:52:52.729Z,30.64
2022-12-01T06:55:19.805Z,30.35
2022-12-01T06:57:46.855Z,30.42
2022-12-01T07:00:21.550Z,30.45
2022-12-01T07:02:48.754Z,30.18
2022-12-01T07:05:15.766Z,30.06
2022-12-01T07:07:42.837Z,30.37
2022-12-01T07:10:12.713Z,30.03
2022-12-01T07:12:39.801Z,30.26
2022-12-01T07:15:08.378Z,30.14
2022-12-01T07:17:35.896Z,30.02
2022-12-01T07:20:04.053Z,29.97
2022-12-01T07:22:32.869Z,30.09
2022-12-01T07:24:59.865Z,29.99
2022-12-01T07:27:30.800Z,30.23
2022-12-01T07:29:57.649Z,30.02
2022-12-01T07:32:24.466Z,30.05
2022-12-01T07:34:51.307Z,30.26
2022-12-01T07:37:18.124Z,30.48
2022-12-01T07:39:47.144Z,29.96
2022-12-01T07:42:14.300Z,30.30
2022-12-01T07:44:42.469Z,30.66
2022-12-01T07:47:09.260Z,30.66
2022-12-01T07:49:36.120Z,30.01
2022-12-01T07:52:02.948Z,29.90
2022-12-01T07:54:32.415Z,30.27
2022-12-01T07:56:59.293Z,30.26
2022-12-01T07:59:26.422Z,29.84
2022-12-01T08:01:54.610Z,29.97
2022-12-01T08:04:21.580Z,29.58
2022-12-01T08:06:48.379Z,29.63
2022-12-01T08:09:15.203Z,29.47
2022-12-01T08:11:42.029Z,29.60
2022-12-01T08:14:08.918Z,29.66
2022-12-01T08:16:36.043Z,29.80
2022-12-01T08:19:04.479Z,29.27
2022-12-01T08:21:31.319Z,29.80
2022-12-01T08:23:58.683Z,29.54
2022-12-01T08:26:26.910Z,29.15
2022-12-01T08:28:53.723Z,29.61
2022-12-01T08:31:23.075Z,29.52
2022-12-01T08:33:51.033Z,29.27
2022-12-01T08:36:20.639Z,29.41
2022-12-01T08:38:50.588Z,29.50
2022-12-01T08:41:18.159Z,29.37
2022-12-01T08:44:01.463Z,29.23
2022-12-01T08:46:34.254Z,28.89
2022-12-01T08:49:02.112Z,28.92
2022-12-01T08:51:30.589Z,28.98
2022-12-01T08:53:58.834Z,29.13
2022-12-01T08:56:28.023Z,28.81
2022-12-01T08:58:55.032Z,28.97
2022-12-01T09:01:22.567Z,29.12
2022-12-01T09:04:05.048Z,28.69
2022-12-01T09:06:34.835Z,28.66
2022-12-01T09:09:01.925Z,29.15
2022-12-01T09:11:29.000Z,29.23
2022-12-01T09:13:55.761Z,28.58
2022-12-01T09:16:22.677Z,28.57
2022-12-01T09:18:49.544Z,28.87
2022-12-01T09:21:18.472Z,29.14
2022-12-01T09:23:46.968Z,28.90
2022-12-01T09:26:18.467Z,28.90
2022-12-01T09:28:46.102Z,29.01
2022-12-01T09:31:14.335Z,28.52
2022-12-01T09:33:41.223Z,28.86
2022-12-01T09:36:09.427Z,28.87
2022-12-01T09:38:37.265Z,28.60
2022-12-01T09:41:09.322Z,28.78
2022-12-01T09:43:41.139Z,28.79
2022-12-01T09:46:14.242Z,28.49
2022-12-01T09:48:43.445Z,28.55
2022-12-01T09:51:14.513Z,28.29
2022-12-01T09:53:42.621Z,28.51
2022-12-01T09:56:20.235Z,28.62
2022-12-01T09:58:50.765Z,28.87
2022-12-01T10:01:23.008Z,28.76
2022-12-01T10:03:57.819Z,28.88
2022-12-01T10:06:31.550Z,28.32
2022-12-01T10:09:11.688Z,28.75
2022-12-01T10:11:42.430Z,28.36
2022-12-01T10:14:19.413Z,28.33
2022-12-01T10:17:07.373Z,28.36
2022-12-01T10:19:40.104Z,28.47
2022-12-01T10:22:28.312Z,28.42
2022-12-01T10:25:01.336Z,28.17
2022-12-01T10:27:42.864Z,28.76
2022-12-01T10:30:15.535Z,28.25
2022-12-01T10:32:51.322Z,28.16
2022-12-01T10:35:19.770Z,28.35
2022-12-01T10:37:50.219Z,28.54
2022-12-01T10:40:18.188Z,28.20
2022-12-01T10:42:48.074Z,28.58
2022-12-01T10:45:18.454Z,28.71
2022-12-01T10:48:07.960Z,28.12
2022-12-01T10:50:35.875Z,28.39
2022-12-01T10:53:03.034Z,28.55
2022-12-01T10:55:33.241Z,28.39
2022-12-01T10:58:09.215Z,28.72
2022-12-01T11:00:59.243Z,28.44
2022-12-01T11:03:30.641Z,28.45
2022-12-01T11:06:00.746Z,27.95
2022-12-01T11:08:36.139Z,27.85
2022-12-01T11:11:03.737Z,28.02
2022-12-01T11:13:35.410Z,27.98
2022-12-01T11:16:04.748Z,27.84
2022-12-01T11:18:34.048Z,28.17
2022-12-01T11:21:10.042Z,27.76
2022-12-01T11:23:39.009Z,28.00
2022-12-01T11:26:11.606Z,27.82
2022-12-01T11:28:51.824Z,28.30
2022-12-01T11:31:20.570Z,28.32
2022-12-01T11:33:52.444Z,27.79
2022-12-01T11:36:22.245Z,27.69
2022-12-01T11:38:50.667Z,28.15
2022-12-01T11:41:28.438Z,28.17
2022-12-01T11:44:01.858Z,27.75
2022-12-01T11:46:33.695Z,27.95
2022-12-01T11:49:01.507Z,27.93
2022-12-01T11:51:32.079Z,27.90
2022-12-01T11:54:23.411Z,27.55
2022-12-01T11:57:17.477Z,27.96
2022-12-01T11:59:40.145Z,27.91
2022-12-01T12:02:21.150Z,27.90
2022-12-01T12:05:09.252Z,27.95
2022-12-01T12:07:50.017Z,27.95
2022-12-01T12:10:30.292Z,27.66
2022-12-01T12:13:10.003Z,28.38
2022-12-01T12:18:50.180Z,28.24
2022-12-01T12:21:28.185Z,28.38
2022-12-01T12:24:23.348Z,27.94
2022-12-01T12:26:56.687Z,28.15
2022-12-01T12:29:42.147Z,28.10
2022-12-01T12:32:28.102Z,28.19
2022-12-01T12:35:04.895Z,27.95
2022-12-01T12:37:42.522Z,28.24
2022-12-01T12:40:32.518Z,28.27
2022-12-01T12:43:13.634Z,28.53
2022-12-01T12:45:50.270Z,28.13
2022-12-01T12:48:28.822Z,28.48
2022-12-01T12:51:08.358Z,28.51
2022-12-01T12:53:41.890Z,28.45
2022-12-01T12:56:12.903Z,28.49
2022-12-01T12:58:47.483Z,28.42
2022-12-01T13:01:19.984Z,28.22
2022-12-01T13:03:55.891Z,28.44
2022-12-01T13:06:27.976Z,28.75
2022-12-01T13:09:00.918Z,28.35
2022-12-01T13:11:32.661Z,28.42
2022-12-01T13:14:06.481Z,28.51
2022-12-01T13:16:36.933Z,28.66
2022-12-01T13:19:12.507Z,28.28
2022-12-01T13:21:42.674Z,28.37
2022-12-01T13:24:12.614Z,28.24
2022-12-01T13:26:41.670Z,28.49
2022-12-01T13:29:14.476Z,28.26
2022-12-01T13:31:43.942Z,28.30
2022-12-01T13:34:21.289Z,27.93
2022-12-01T13:36:50.046Z,28.04
2022-12-01T13:39:20.629Z,27.97
2022-12-01T13:41:58.539Z,28.27
2022-12-01T13:44:30.118Z,27.79
2022-12-01T13:46:59.716Z,28.02
2022-12-01T13:49:40.451Z,27.90
2022-12-01T13:52:26.621Z,28.10
2022-12-01T13:55:18.483Z,27.93
2022-12-01T13:57:48.462Z,28.35
2022-12-01T14:00:24.691Z,28.30
2022-12-01T14:03:39.201Z,27.94
2022-12-01T14:06:19.516Z,27.64
2022-12-01T14:08:48.024Z,27.90
2022-12-01T14:11:22.626Z,27.66
2022-12-01T14:13:55.008Z,27.79
2022-12-01T14:16:22.782Z,27.55
2022-12-01T14:18:51.973Z,27.74
2022-12-01T14:21:41.130Z,27.36
2022-12-01T14:24:21.407Z,27.67
2022-12-01T14:26:49.224Z,27.76
2022-12-01T14:29:31.991Z,27.72
2022-12-01T14:32:25.857Z,27.88
2022-12-01T14:35:01.280Z,27.73
2022-12-01T14:37:37.379Z,27.40
2022-12-01T14:40:08.365Z,27.52
2022-12-01T14:42:56.855Z,27.71
2022-12-01T14:45:27.941Z,27.37
2022-12-01T14:48:01.999Z,27.48
2022-12-01T14:50:36.096Z,27.26
2022-12-01T14:53:15.676Z,27.16
2022-12-01T14:55:53.942Z,27.45
2022-12-01T14:58:23.911Z,27.71
2022-12-01T15:00:59.485Z,27.40
2022-12-01T15:03:32.193Z,27.45
2022-12-01T15:05:59.347Z,27.80
2022-12-01T15:09:03.947Z,27.41
2022-12-01T15:11:23.320Z,28.11
2022-12-01T15:13:51.822Z,27.45
2022-12-01T15:16:21.729Z,27.60
2022-12-01T15:18:49.142Z,27.44
2022-12-01T15:21:19.450Z,27.75
2022-12-01T15:23:55.800Z,27.62
2022-12-01T15:26:25.016Z,27.69
2022-12-01T15:29:05.013Z,27.34
2022-12-01T15:31:32.283Z,27.76
2022-12-01T15:33:59.520Z,27.64
2022-12-01T15:36:26.453Z,27.64
2022-12-01T15:38:54.833Z,27.77
2022-12-01T15:41:30.527Z,27.50
2022-12-01T15:44:00.461Z,27.48
2022-12-01T15:46:28.963Z,27.20
2022-12-01T15:49:07.631Z,27.02
2022-12-01T15:51:35.555Z,27.28
2022-12-01T15:54:04.448Z,27.58
2022-12-01T15:56:34.611Z,27.18
2022-12-01T15:59:07.733Z,27.36
2022-12-01T16:01:35.960Z,27.46
2022-12-01T16:04:05.599Z,27.37
2022-12-01T16:06:36.287Z,27.31
2022-12-01T16:09:06.852Z,27.42
2022-12-01T16:11:34.000Z,27.03
2022-12-01T16:14:04.258Z,27.07
2022-12-01T16:16:41.603Z,26.88
2022-12-01T16:19:27.030Z,27.29
2022-12-01T16:21:57.153Z,27.06
2022-12-01T16:24:29.635Z,26.89
2022-12-01T16:27:00.495Z,27.27
2022-12-01T16:29:29.778Z,27.30
2022-12-01T16:34:48.466Z,26.96
2022-12-01T16:37:16.030Z,27.08
2022-12-01T16:39:44.323Z,27.09
2022-12-01T16:42:13.667Z,27.15
2022-12-01T16:44:41.199Z,27.23
2022-12-01T16:47:16.808Z,27.13
2022-12-01T16:49:43.787Z,27.18
2022-12-01T16:54:59.774Z,26.80
2022-12-01T16:57:26.612Z,26.97
2022-12-01T16:59:53.444Z,26.66
2022-12-01T17:02:20.286Z,26.96
2022-12-01T17:04:47.319Z,26.98
2022-12-01T17:07:14.292Z,27.23
2022-12-01T17:09:41.083Z,27.45
2022-12-01T17:12:09.744Z,27.04
2022-12-01T17:14:36.572Z,27.19
2022-12-01T17:17:03.901Z,27.13
2022-12-01T17:19:30.669Z,27.03
2022-12-01T17:21:57.463Z,27.37
2022-12-01T17:24:25.908Z,27.63
2022-12-01T17:26:52.746Z,27.06
2022-12-01T17:29:20.934Z,27.15
2022-12-01T17:31:47.810Z,27.30
2022-12-01T17:34:15.684Z,27.58
2022-12-01T17:36:42.498Z,27.64
2022-12-01T17:39:09.306Z,27.88
2022-12-01T17:41:36.292Z,27.22
2022-12-01T17:44:03.820Z,27.69
2022-12-01T17:46:32.244Z,27.80
2022-12-01T17:49:00.763Z,27.41
2022-12-01T17:51:27.700Z,27.24
2022-12-01T17:53:54.863Z,27.67
2022-12-01T17:56:21.614Z,27.49
2022-12-01T17:58:50.363Z,27.30
2022-12-01T18:01:23.047Z,27.22
2022-12-01T18:03:53.642Z,27.07
2022-12-01T18:06:20.774Z,27.12
2022-12-01T18:08:47.739Z,27.13
2022-12-01T18:11:16.056Z,27.39
2022-12-01T18:13:44.703Z,27.19
2022-12-01T18:16:14.387Z,26.92
2022-12-01T18:18:41.306Z,27.52
2022-12-01T18:21:11.354Z,27.08
2022-12-01T18:23:38.511Z,27.12
2022-12-01T18:26:10.864Z,27.21
2022-12-01T18:28:42.780Z,27.47
2022-12-01T18:31:11.277Z,27.56
2022-12-01T18:33:40.328Z,27.35
2022-12-01T18:36:14.929Z,27.19
2022-12-01T18:38:41.891Z,27.02
2022-12-01T18:41:09.742Z,27.13
2022-12-01T18:43:36.862Z,27.18
2022-12-01T18:46:05.199Z,27.43
2022-12-01T18:48:32.709Z,27.37
2022-12-01T18:51:02.775Z,27.52
2022-12-01T18:53:31.165Z,27.51
2022-12-01T18:56:01.885Z,27.12
2022-12-01T18:58:28.821Z,26.79
2022-12-01T19:00:55.710Z,26.86
2022-12-01T19:03:22.608Z,26.95
2022-12-01T19:05:49.466Z,26.99
2022-12-01T19:08:16.501Z,27.24
2022-12-01T19:10:44.684Z,27.40
2022-12-01T19:13:11.498Z,26.95
2022-12-01T19:15:38.379Z,27.25
2022-12-01T19:18:05.364Z,27.22
2022-12-01T19:20:32.246Z,27.47
2022-12-01T19:22:59.514Z,27.34
2022-12-01T19:25:27.099Z,27.27
2022-12-01T19:27:55.277Z,26.83
2022-12-01T19:30:22.124Z,26.81
2022-12-01T19:32:48.913Z,27.20
2022-12-01T19:35:15.979Z,27.15
2022-12-01T19:37:42.883Z,26.91
2022-12-01T19:40:10.600Z,26.90
2022-12-01T19:42:37.362Z,26.98
2022-12-01T19:45:06.804Z,26.95
2022-12-01T19:47:34.681Z,27.02
2022-12-01T19:50:01.782Z,27.12
2022-12-01T19:52:28.760Z,26.99
2022-12-01T19:54:55.636Z,27.15
2022-12-01T19:57:22.449Z,26.90
2022-12-01T19:59:49.317Z,27.11
2022-12-01T20:02:17.589Z,27.15
2022-12-01T20:04:44.517Z,27.25
2022-12-01T20:07:11.299Z,27.48
2022-12-01T20:09:38.436Z,27.00
2022-12-01T20:12:05.516Z,26.93
2022-12-01T20:14:32.315Z,27.29
2022-12-01T20:16:59.278Z,27.11
2022-12-01T20:19:27.593Z,26.86
2022-12-01T20:21:54.420Z,27.10
2022-12-01T20:24:22.781Z,27.19
2022-12-01T20:26:51.800Z,27.25
2022-12-01T20:29:21.136Z,27.43
2022-12-01T20:31:49.083Z,27.23
2022-12-01T20:34:18.466Z,27.06
2022-12-01T20:36:47.345Z,26.77
2022-12-01T20:39:15.654Z,27.16
2022-12-01T20:41:43.543Z,27.33
2022-12-01T20:44:10.793Z,27.50
2022-12-01T20:46:38.388Z,27.40
2022-12-01T20:49:05.302Z,26.97
2022-12-01T20:51:33.487Z,27.16
2022-12-01T20:54:30.559Z,27.13
2022-12-01T20:56:49.157Z,27.08
2022-12-01T20:59:16.031Z,27.38
2022-12-01T21:01:42.902Z,26.91
2022-12-01T21:04:09.675Z,27.39
2022-12-01T21:06:36.509Z,27.00
2022-12-01T21:09:05.163Z,26.83
2022-12-01T21:11:53.948Z,27.07
2022-12-01T21:14:25.974Z,26.85
2022-12-01T21:16:57.059Z,27.11
2022-12-01T21:19:28.926Z,26.88
2022-12-01T21:21:55.886Z,27.15
2022-12-01T21:24:33.510Z,27.11
2022-12-01T21:27:12.369Z,27.37
2022-12-01T21:29:40.692Z,27.17
2022-12-01T21:32:13.337Z,27.22
2022-12-01T21:34:40.237Z,27.26
2022-12-01T21:37:12.457Z,27.25
2022-12-01T21:39:40.750Z,27.38
2022-12-01T21:42:15.908Z,27.27
2022-12-01T21:44:42.950Z,27.43
2022-12-01T21:47:17.670Z,27.54
2022-12-01T21:49:45.419Z,27.54
2022-12-01T21:52:16.751Z,27.36
2022-12-01T21:54:44.848Z,27.42
2022-12-01T21:57:29.351Z,27.63
2022-12-01T22:00:06.050Z,27.39
2022-12-01T22:02:48.785Z,27.47
2022-12-01T22:05:27.875Z,27.84
2022-12-01T22:08:00.662Z,27.66
2022-12-01T22:11:04.566Z,27.51
2022-12-01T22:13:43.034Z,27.84
2022-12-01T22:16:16.296Z,27.76
2022-12-01T22:18:46.418Z,27.81
2022-12-01T22:21:36.823Z,27.57
2022-12-01T22:24:24.701Z,27.69
2022-12-01T22:27:10.026Z,27.75
2022-12-01T22:29:41.874Z,27.71
2022-12-01T22:32:35.586Z,27.65
2022-12-01T22:35:22.596Z,27.73
2022-12-01T22:37:51.224Z,27.51
2022-12-01T22:40:45.617Z,27.64
2022-12-01T22:43:26.567Z,27.81
2022-12-01T22:46:07.171Z,27.70
2022-12-01T22:48:37.488Z,27.59
2022-12-01T22:51:20.886Z,27.84
2022-12-01T22:53:48.820Z,27.73
2022-12-01T22:56:26.864Z,27.73
2022-12-01T22:58:56.258Z,28.05
2022-12-01T23:01:27.079Z,27.41
2022-12-01T23:04:07.980Z,27.69
2022-12-01T23:06:58.463Z,27.67
2022-12-01T23:09:29.404Z,27.85
2022-12-01T23:12:00.270Z,27.84
2022-12-01T23:14:29.067Z,27.77
2022-12-01T23:17:05.378Z,27.91
2022-12-01T23:19:32.436Z,27.76
2022-12-01T23:21:59.317Z,27.84
2022-12-01T23:24:29.693Z,27.93
2022-12-01T23:26:59.223Z,28.08
2022-12-01T23:29:25.987Z,28.01
2022-12-01T23:31:54.251Z,28.04
2022-12-01T23:34:21.089Z,27.97
2022-12-01T23:36:49.978Z,27.89
2022-12-01T23:39:18.841Z,27.85
2022-12-01T23:41:47.771Z,28.56
2022-12-01T23:44:20.549Z,27.80
2022-12-01T23:46:50.200Z,28.05
2022-12-01T23:49:21.033Z,28.13
2022-12-01T23:51:50.763Z,28.05
2022-12-01T23:54:20.591Z,28.13
2022-12-01T23:56:51.696Z,28.17
2022-12-01T23:59:19.720Z,28.18
